MSR791 HECA-YPPH
Flight info
| Callsign | MSR791 |
|---|---|
| Flight time | N/A |
| Altitude | 33000 |
| Route | CVO L677 MENLI N697 SISIK W976 DATOK L550 KARIK B411 DEESA Y415 LOTOK P559 ALPOT M691 SILBA H979 DASVA N318 KAPUM N685 RURAL B415 SIXIV N318 LAKLU/N0501F350 N318 TOLDA P570 KITAL L894 LELEM/N0497F370 L894 RUNUT/N0487F390 L894 MERIB T12 KAGMI |
| Aircraft | A359/H-SDE2E3GHIJ3J4J5LM1ORWXY/LB1D1 |
Departure
| Time | 2026-05-07 19:52 |
|---|---|
| Airport | Cairo International Airport (HECA) |
Arrival
| Time | N/A |
|---|---|
| Airport | Perth International Airport (YPPH) |
| Time | Latitude | Longitude | Altitude | Speed | Heading |
|---|---|---|---|---|---|
| 2026-05-07 18:18 | 30.10747 | 31.39706 | 381 ft | 0 kts | 255° |
| 2026-05-07 19:40 | 30.10749 | 31.39715 | 353 ft | 4 kts | 255° |
| 2026-05-07 19:41 | 30.10756 | 31.39744 | 380 ft | 2 kts | 255° |
| 2026-05-07 19:41 | 30.10762 | 31.39768 | 380 ft | 4 kts | 234° |
| 2026-05-07 19:41 | 30.10775 | 31.39783 | 380 ft | 4 kts | 190° |
| 2026-05-07 19:41 | 30.10796 | 31.39781 | 380 ft | 4 kts | 160° |
| 2026-05-07 19:42 | 30.10819 | 31.39772 | 380 ft | 1 kts | 165° |
| 2026-05-07 19:42 | 30.10820 | 31.39772 | 380 ft | 0 kts | 165° |
| 2026-05-07 19:46 | 30.10815 | 31.39774 | 380 ft | 2 kts | 165° |
| 2026-05-07 19:46 | 30.10780 | 31.39784 | 380 ft | 8 kts | 165° |
| 2026-05-07 19:46 | 30.10727 | 31.39800 | 380 ft | 8 kts | 165° |
| 2026-05-07 19:46 | 30.10671 | 31.39817 | 380 ft | 8 kts | 165° |
| 2026-05-07 19:47 | 30.10614 | 31.39835 | 380 ft | 9 kts | 165° |
| 2026-05-07 19:47 | 30.10554 | 31.39853 | 380 ft | 9 kts | 166° |
| 2026-05-07 19:47 | 30.10493 | 31.39871 | 380 ft | 9 kts | 167° |
| 2026-05-07 19:47 | 30.10430 | 31.39867 | 380 ft | 9 kts | 199° |
| 2026-05-07 19:48 | 30.10382 | 31.39822 | 380 ft | 9 kts | 227° |
| 2026-05-07 19:48 | 30.10340 | 31.39768 | 380 ft | 9 kts | 229° |
| 2026-05-07 19:48 | 30.10297 | 31.39712 | 380 ft | 9 kts | 228° |
| 2026-05-07 19:48 | 30.10253 | 31.39654 | 380 ft | 10 kts | 228° |
| 2026-05-07 19:49 | 30.10207 | 31.39597 | 380 ft | 10 kts | 224° |
| 2026-05-07 19:49 | 30.10149 | 31.39578 | 380 ft | 8 kts | 159° |
| 2026-05-07 19:49 | 30.10102 | 31.39619 | 380 ft | 9 kts | 140° |
| 2026-05-07 19:49 | 30.10056 | 31.39665 | 380 ft | 9 kts | 138° |
| 2026-05-07 19:50 | 30.10013 | 31.39716 | 380 ft | 9 kts | 125° |
| 2026-05-07 19:50 | 30.10003 | 31.39782 | 380 ft | 8 kts | 83° |
| 2026-05-07 19:50 | 30.10012 | 31.39855 | 378 ft | 11 kts | 81° |
| 2026-05-07 19:50 | 30.10050 | 31.39933 | 376 ft | 12 kts | 49° |
| 2026-05-07 19:51 | 30.10119 | 31.40027 | 378 ft | 32 kts | 49° |
| 2026-05-07 19:51 | 30.10397 | 31.40394 | 383 ft | 89 kts | 49° |
| 2026-05-07 19:51 | 30.10921 | 31.41093 | 379 ft | 140 kts | 49° |
| 2026-05-07 19:51 | 30.11653 | 31.42065 | 570 ft | 168 kts | 47° |
| 2026-05-07 19:52 | 30.12397 | 31.43056 | 1295 ft | 163 kts | 47° |
| 2026-05-07 19:52 | 30.13144 | 31.44056 | 1926 ft | 165 kts | 49° |
| 2026-05-07 19:52 | 30.13906 | 31.45077 | 2504 ft | 170 kts | 49° |
| 2026-05-07 19:52 | 30.14634 | 31.46163 | 2968 ft | 172 kts | 58° |
| 2026-05-07 19:53 | 30.15017 | 31.47462 | 3317 ft | 177 kts | 81° |
| 2026-05-07 19:53 | 30.14762 | 31.48905 | 3613 ft | 192 kts | 115° |
| 2026-05-07 19:53 | 30.13826 | 31.50053 | 3825 ft | 208 kts | 135° |
| 2026-05-07 19:53 | 30.12546 | 31.50970 | 3978 ft | 226 kts | 149° |
| 2026-05-07 19:54 | 30.11060 | 31.51764 | 4132 ft | 242 kts | 153° |
| 2026-05-07 19:54 | 30.09477 | 31.52579 | 4339 ft | 256 kts | 152° |
| 2026-05-07 19:54 | 30.07825 | 31.53490 | 4571 ft | 269 kts | 150° |
| 2026-05-07 19:54 | 30.06148 | 31.54513 | 4953 ft | 276 kts | 148° |
| 2026-05-07 19:55 | 30.04469 | 31.55650 | 5374 ft | 281 kts | 146° |
| 2026-05-07 19:55 | 30.02810 | 31.56892 | 5826 ft | 285 kts | 143° |
| 2026-05-07 19:55 | 30.01188 | 31.58235 | 6270 ft | 289 kts | 140° |
| 2026-05-07 19:55 | 29.99607 | 31.59695 | 6709 ft | 292 kts | 137° |
| 2026-05-07 19:56 | 29.98114 | 31.61248 | 7161 ft | 294 kts | 134° |
| 2026-05-07 19:56 | 29.96666 | 31.62928 | 7655 ft | 297 kts | 133° |
| 2026-05-07 19:56 | 29.95099 | 31.64497 | 8147 ft | 300 kts | 142° |
| 2026-05-07 19:56 | 29.93365 | 31.65863 | 8678 ft | 303 kts | 146° |
| 2026-05-07 19:57 | 29.91683 | 31.67333 | 9203 ft | 305 kts | 137° |
| 2026-05-07 19:57 | 29.90131 | 31.69016 | 9747 ft | 307 kts | 134° |
| 2026-05-07 19:57 | 29.88677 | 31.70832 | 10234 ft | 310 kts | 129° |
| 2026-05-07 19:57 | 29.87281 | 31.72789 | 10484 ft | 322 kts | 127° |
| 2026-05-07 19:58 | 29.85898 | 31.74883 | 10713 ft | 335 kts | 125° |
| 2026-05-07 19:58 | 29.84493 | 31.77096 | 10940 ft | 347 kts | 124° |
| 2026-05-07 19:58 | 29.83078 | 31.79352 | 11159 ft | 359 kts | 124° |
| 2026-05-07 19:58 | 29.81592 | 31.81716 | 11388 ft | 369 kts | 125° |
| 2026-05-07 19:59 | 29.80053 | 31.84148 | 11604 ft | 380 kts | 125° |
| 2026-05-07 19:59 | 29.78671 | 31.86775 | 11777 ft | 388 kts | 113° |
| 2026-05-07 19:59 | 29.77699 | 31.89706 | 11992 ft | 396 kts | 107° |
| 2026-05-07 19:59 | 29.76902 | 31.92757 | 12285 ft | 400 kts | 103° |
| 2026-05-07 20:00 | 29.76197 | 31.95877 | 12670 ft | 403 kts | 102° |
| 2026-05-07 20:00 | 29.75532 | 31.99018 | 13069 ft | 405 kts | 102° |
| 2026-05-07 20:00 | 29.74880 | 32.02137 | 13458 ft | 407 kts | 102° |
| 2026-05-07 20:00 | 29.74207 | 32.05310 | 13854 ft | 409 kts | 102° |
| 2026-05-07 20:01 | 29.73520 | 32.08494 | 14195 ft | 411 kts | 102° |
| 2026-05-07 20:01 | 29.72814 | 32.11709 | 14517 ft | 414 kts | 103° |
| 2026-05-07 20:01 | 29.72099 | 32.14925 | 14853 ft | 416 kts | 103° |
| 2026-05-07 20:01 | 29.71620 | 32.17068 | 15095 ft | 417 kts | 103° |
| 2026-05-07 20:02 | 29.70896 | 32.20295 | 15428 ft | 419 kts | 103° |
| 2026-05-07 20:02 | 29.69923 | 32.24625 | 15872 ft | 422 kts | 103° |
| 2026-05-07 20:02 | 29.69424 | 32.26845 | 16101 ft | 423 kts | 103° |
| 2026-05-07 20:02 | 29.68694 | 32.30091 | 16437 ft | 425 kts | 103° |
| 2026-05-07 20:03 | 29.67952 | 32.33392 | 16778 ft | 427 kts | 103° |
| 2026-05-07 20:03 | 29.67205 | 32.36711 | 17117 ft | 429 kts | 103° |
| 2026-05-07 20:03 | 29.66451 | 32.40054 | 17460 ft | 431 kts | 103° |
| 2026-05-07 20:03 | 29.65696 | 32.43401 | 17804 ft | 434 kts | 103° |
| 2026-05-07 20:04 | 29.64935 | 32.46766 | 18156 ft | 436 kts | 103° |
| 2026-05-07 20:04 | 29.64170 | 32.50148 | 18469 ft | 438 kts | 103° |
| 2026-05-07 20:04 | 29.63399 | 32.53551 | 18762 ft | 441 kts | 103° |
| 2026-05-07 20:04 | 29.62623 | 32.56972 | 19076 ft | 443 kts | 103° |
| 2026-05-07 20:05 | 29.61853 | 32.60362 | 19376 ft | 446 kts | 103° |
| 2026-05-07 20:05 | 29.61057 | 32.63864 | 19698 ft | 448 kts | 103° |
| 2026-05-07 20:05 | 29.60382 | 32.67359 | 20028 ft | 449 kts | 97° |
| 2026-05-07 20:05 | 29.60107 | 32.70885 | 20367 ft | 449 kts | 91° |
| 2026-05-07 20:06 | 29.60016 | 32.74477 | 20700 ft | 451 kts | 89° |
| 2026-05-07 20:06 | 29.60016 | 32.78097 | 21040 ft | 453 kts | 87° |
| 2026-05-07 20:06 | 29.60062 | 32.81720 | 21375 ft | 456 kts | 87° |
| 2026-05-07 20:06 | 29.60123 | 32.85376 | 21701 ft | 458 kts | 87° |
| 2026-05-07 20:07 | 29.60184 | 32.89048 | 22062 ft | 461 kts | 87° |
| 2026-05-07 20:07 | 29.60236 | 32.92741 | 22415 ft | 463 kts | 87° |
| 2026-05-07 20:07 | 29.60280 | 32.96459 | 22776 ft | 466 kts | 87° |
| 2026-05-07 20:07 | 29.60316 | 33.00192 | 23144 ft | 468 kts | 87° |
| 2026-05-07 20:08 | 29.60347 | 33.03950 | 23502 ft | 471 kts | 87° |
| 2026-05-07 20:08 | 29.60376 | 33.07682 | 23826 ft | 474 kts | 87° |
| 2026-05-07 20:08 | 29.60405 | 33.11476 | 24158 ft | 476 kts | 87° |
| 2026-05-07 20:08 | 29.60431 | 33.15286 | 24493 ft | 478 kts | 87° |
| 2026-05-07 20:09 | 29.60456 | 33.19110 | 24838 ft | 479 kts | 87° |
| 2026-05-07 20:09 | 29.60483 | 33.22957 | 25163 ft | 481 kts | 87° |
| 2026-05-07 20:09 | 29.60509 | 33.26809 | 25498 ft | 483 kts | 87° |
| 2026-05-07 20:10 | 29.60559 | 33.34574 | 26135 ft | 487 kts | 87° |
| 2026-05-07 20:10 | 29.60582 | 33.38473 | 26454 ft | 489 kts | 87° |
| 2026-05-07 20:10 | 29.60604 | 33.42392 | 26743 ft | 491 kts | 87° |
| 2026-05-07 20:10 | 29.60625 | 33.46327 | 27053 ft | 493 kts | 87° |
| 2026-05-07 20:11 | 29.60644 | 33.50280 | 27346 ft | 495 kts | 87° |
| 2026-05-07 20:11 | 29.60662 | 33.54249 | 27633 ft | 497 kts | 87° |
| 2026-05-07 20:11 | 29.60680 | 33.58227 | 27928 ft | 499 kts | 87° |
| 2026-05-07 20:11 | 29.60695 | 33.62214 | 28216 ft | 501 kts | 87° |
| 2026-05-07 20:12 | 29.60710 | 33.66183 | 28486 ft | 503 kts | 87° |
| 2026-05-07 20:12 | 29.60724 | 33.70209 | 28754 ft | 505 kts | 87° |
| 2026-05-07 20:12 | 29.60737 | 33.74249 | 29015 ft | 507 kts | 87° |
| 2026-05-07 20:12 | 29.60748 | 33.78300 | 29270 ft | 508 kts | 87° |
| 2026-05-07 20:13 | 29.60758 | 33.82374 | 29516 ft | 510 kts | 87° |
| 2026-05-07 20:13 | 29.60764 | 33.86454 | 29830 ft | 510 kts | 87° |
| 2026-05-07 20:13 | 29.60760 | 33.90519 | 30194 ft | 509 kts | 88° |
| 2026-05-07 20:13 | 29.60751 | 33.94593 | 30500 ft | 508 kts | 88° |
| 2026-05-07 20:14 | 29.60741 | 33.98651 | 30800 ft | 507 kts | 88° |
| 2026-05-07 20:14 | 29.60730 | 34.02692 | 31088 ft | 506 kts | 88° |
| 2026-05-07 20:14 | 29.60720 | 34.06736 | 31373 ft | 505 kts | 88° |
| 2026-05-07 20:14 | 29.60709 | 34.10761 | 31644 ft | 504 kts | 88° |
| 2026-05-07 20:15 | 29.60697 | 34.14795 | 31908 ft | 503 kts | 88° |
| 2026-05-07 20:15 | 29.60685 | 34.18815 | 32162 ft | 502 kts | 88° |
| 2026-05-07 20:15 | 29.60672 | 34.22833 | 32396 ft | 502 kts | 88° |
| 2026-05-07 20:15 | 29.60663 | 34.26794 | 32629 ft | 501 kts | 88° |
| 2026-05-07 20:16 | 29.60666 | 34.30808 | 32866 ft | 501 kts | 88° |
| 2026-05-07 20:16 | 29.60676 | 34.34816 | 33041 ft | 501 kts | 88° |
| 2026-05-07 20:16 | 29.60686 | 34.38779 | 33061 ft | 505 kts | 88° |
| 2026-05-07 20:17 | 29.60701 | 34.46463 | 33053 ft | 507 kts | 88° |
| 2026-05-07 20:17 | 29.60162 | 34.54536 | 33047 ft | 509 kts | 101° |
| 2026-05-07 20:18 | 29.57558 | 34.62039 | 33032 ft | 511 kts | 122° |
| 2026-05-07 20:18 | 29.52870 | 34.68136 | 33027 ft | 511 kts | 139° |
| 2026-05-07 20:19 | 29.47688 | 34.73729 | 33015 ft | 512 kts | 130° |
| 2026-05-07 20:19 | 29.44074 | 34.80650 | 33015 ft | 510 kts | 109° |
| 2026-05-07 20:20 | 29.42456 | 34.88550 | 33013 ft | 509 kts | 98° |
| 2026-05-07 20:20 | 29.41838 | 34.96620 | 33011 ft | 507 kts | 85° |
| 2026-05-07 20:21 | 29.43083 | 35.04543 | 33011 ft | 505 kts | 74° |
| 2026-05-07 20:21 | 29.44906 | 35.12334 | 33016 ft | 505 kts | 73° |
| 2026-05-07 20:22 | 29.46782 | 35.20118 | 33015 ft | 506 kts | 73° |
| 2026-05-07 20:22 | 29.48628 | 35.27919 | 33015 ft | 506 kts | 74° |
| 2026-05-07 20:23 | 29.50437 | 35.35685 | 33015 ft | 506 kts | 74° |
| 2026-05-07 20:23 | 29.52248 | 35.43509 | 33013 ft | 507 kts | 74° |
| 2026-05-07 20:24 | 29.54060 | 35.51330 | 33014 ft | 506 kts | 74° |
| 2026-05-07 20:24 | 29.55913 | 35.59140 | 33017 ft | 506 kts | 74° |
| 2026-05-07 20:25 | 29.57762 | 35.66903 | 33013 ft | 506 kts | 74° |
| 2026-05-07 20:25 | 29.59611 | 35.74714 | 33011 ft | 506 kts | 74° |
| 2026-05-07 20:26 | 29.61448 | 35.82531 | 33011 ft | 506 kts | 75° |
| 2026-05-07 20:26 | 29.62861 | 35.90409 | 33012 ft | 507 kts | 80° |
| 2026-05-07 20:27 | 29.64039 | 35.98427 | 33011 ft | 508 kts | 80° |
| 2026-05-07 20:27 | 29.65262 | 36.06441 | 33006 ft | 510 kts | 79° |
| 2026-05-07 20:28 | 29.66547 | 36.14475 | 33008 ft | 510 kts | 79° |
| 2026-05-07 20:28 | 29.67849 | 36.22511 | 33007 ft | 511 kts | 79° |
| 2026-05-07 20:29 | 29.69146 | 36.30548 | 33007 ft | 511 kts | 79° |
| 2026-05-07 20:29 | 29.70427 | 36.38538 | 33006 ft | 511 kts | 79° |
| 2026-05-07 20:30 | 29.71724 | 36.46571 | 33005 ft | 511 kts | 79° |
| 2026-05-07 20:30 | 29.73032 | 36.54603 | 33007 ft | 510 kts | 79° |
| 2026-05-07 20:31 | 29.74328 | 36.62649 | 33010 ft | 510 kts | 80° |
| 2026-05-07 20:31 | 29.74588 | 36.70768 | 33010 ft | 508 kts | 97° |
| 2026-05-07 20:32 | 29.73289 | 36.78741 | 33012 ft | 508 kts | 103° |
| 2026-05-07 20:32 | 29.71701 | 36.86612 | 33016 ft | 508 kts | 104° |
| 2026-05-07 20:33 | 29.70074 | 36.94517 | 33014 ft | 508 kts | 104° |
| 2026-05-07 20:33 | 29.68470 | 37.02428 | 33018 ft | 507 kts | 104° |
| 2026-05-07 20:34 | 29.66880 | 37.10336 | 33020 ft | 507 kts | 104° |
| 2026-05-07 20:34 | 29.65289 | 37.18241 | 33018 ft | 507 kts | 104° |
| 2026-05-07 20:35 | 29.63701 | 37.26100 | 33024 ft | 507 kts | 104° |
| 2026-05-07 20:35 | 29.62101 | 37.33993 | 33024 ft | 507 kts | 104° |
| 2026-05-07 20:36 | 29.60495 | 37.41885 | 33024 ft | 507 kts | 104° |
| 2026-05-07 20:36 | 29.58885 | 37.49770 | 33022 ft | 507 kts | 104° |
| 2026-05-07 20:37 | 29.57280 | 37.57604 | 33024 ft | 507 kts | 104° |
| 2026-05-07 20:37 | 29.55660 | 37.65495 | 33021 ft | 506 kts | 104° |
| 2026-05-07 20:38 | 29.54037 | 37.73369 | 33024 ft | 507 kts | 104° |
| 2026-05-07 20:38 | 29.52410 | 37.81239 | 33024 ft | 507 kts | 104° |
| 2026-05-07 20:39 | 29.50777 | 37.89113 | 33020 ft | 507 kts | 104° |
| 2026-05-07 20:39 | 29.49139 | 37.96983 | 33025 ft | 507 kts | 104° |
| 2026-05-07 20:40 | 29.47566 | 38.04878 | 33025 ft | 507 kts | 102° |
| 2026-05-07 20:40 | 29.46204 | 38.12782 | 33023 ft | 508 kts | 102° |
| 2026-05-07 20:41 | 29.44844 | 38.20737 | 33027 ft | 508 kts | 102° |
| 2026-05-07 20:41 | 29.43443 | 38.28706 | 33025 ft | 509 kts | 102° |
| 2026-05-07 20:42 | 29.42026 | 38.36626 | 33026 ft | 509 kts | 103° |
| 2026-05-07 20:42 | 29.40595 | 38.44580 | 33029 ft | 509 kts | 103° |
| 2026-05-07 20:43 | 29.39157 | 38.52549 | 33030 ft | 510 kts | 103° |
| 2026-05-07 20:43 | 29.37712 | 38.60531 | 33031 ft | 511 kts | 103° |
| 2026-05-07 20:44 | 29.36270 | 38.68475 | 33033 ft | 512 kts | 103° |
| 2026-05-07 20:44 | 29.34812 | 38.76472 | 33038 ft | 513 kts | 104° |
| 2026-05-07 20:45 | 29.33347 | 38.84485 | 33040 ft | 514 kts | 104° |
| 2026-05-07 20:45 | 29.31872 | 38.92499 | 33041 ft | 514 kts | 105° |
| 2026-05-07 20:46 | 29.30235 | 39.00472 | 33049 ft | 514 kts | 106° |
| 2026-05-07 20:46 | 29.28522 | 39.08429 | 33049 ft | 515 kts | 107° |
| 2026-05-07 20:47 | 29.26830 | 39.16360 | 33054 ft | 516 kts | 107° |
| 2026-05-07 20:47 | 29.25140 | 39.24364 | 33054 ft | 516 kts | 107° |
| 2026-05-07 20:48 | 29.23453 | 39.32360 | 33060 ft | 517 kts | 107° |
| 2026-05-07 20:48 | 29.21757 | 39.40372 | 33057 ft | 517 kts | 107° |
| 2026-05-07 20:49 | 29.20064 | 39.48338 | 33065 ft | 518 kts | 108° |
| 2026-05-07 20:49 | 29.18354 | 39.56356 | 33066 ft | 519 kts | 108° |
| 2026-05-07 20:50 | 29.16638 | 39.64383 | 33069 ft | 519 kts | 108° |
| 2026-05-07 20:50 | 29.14925 | 39.72362 | 33073 ft | 520 kts | 108° |
| 2026-05-07 20:51 | 29.13193 | 39.80409 | 33069 ft | 520 kts | 109° |
| 2026-05-07 20:51 | 29.11455 | 39.88463 | 33069 ft | 521 kts | 109° |
| 2026-05-07 20:52 | 29.10084 | 39.95178 | 33072 ft | 523 kts | 106° |
| 2026-05-07 20:52 | 29.08820 | 40.03415 | 33071 ft | 526 kts | 104° |
| 2026-05-07 20:53 | 29.07420 | 40.13010 | 33073 ft | 526 kts | 105° |
| 2026-05-07 20:53 | 29.06354 | 40.19920 | 33075 ft | 527 kts | 106° |
| 2026-05-07 20:54 | 29.05051 | 40.28118 | 33079 ft | 528 kts | 106° |
| 2026-05-07 20:54 | 29.03721 | 40.36380 | 33080 ft | 529 kts | 107° |
| 2026-05-07 20:55 | 29.02385 | 40.44663 | 33083 ft | 530 kts | 107° |
| 2026-05-07 20:55 | 29.01717 | 40.48796 | 33085 ft | 530 kts | 107° |
| 2026-05-07 20:56 | 29.01439 | 40.50511 | 33084 ft | 530 kts | 107° |
| 2026-05-07 20:57 | 29.00228 | 40.57987 | 33085 ft | 531 kts | 107° |
| 2026-05-07 20:57 | 28.98885 | 40.66244 | 33085 ft | 532 kts | 107° |
| 2026-05-07 20:58 | 28.97525 | 40.74576 | 33087 ft | 533 kts | 108° |
| 2026-05-07 20:58 | 28.96154 | 40.82923 | 33080 ft | 534 kts | 108° |
| 2026-05-07 20:59 | 28.94787 | 40.91215 | 33078 ft | 535 kts | 108° |
| 2026-05-07 20:59 | 28.93405 | 40.99567 | 33076 ft | 536 kts | 108° |
| 2026-05-07 21:00 | 28.92016 | 41.07942 | 33077 ft | 537 kts | 108° |
| 2026-05-07 21:00 | 28.90617 | 41.16334 | 33076 ft | 538 kts | 108° |
| 2026-05-07 21:01 | 28.89211 | 41.24736 | 33070 ft | 539 kts | 108° |
| 2026-05-07 21:01 | 28.87798 | 41.33150 | 33068 ft | 540 kts | 108° |
| 2026-05-07 21:02 | 28.86377 | 41.41583 | 33063 ft | 541 kts | 108° |
| 2026-05-07 21:02 | 28.84954 | 41.50004 | 33062 ft | 541 kts | 108° |
| 2026-05-07 21:03 | 28.83535 | 41.58364 | 33066 ft | 540 kts | 109° |
| 2026-05-07 21:03 | 28.82094 | 41.66794 | 33058 ft | 540 kts | 109° |
| 2026-05-07 21:04 | 28.80647 | 41.75218 | 33046 ft | 540 kts | 109° |
| 2026-05-07 21:04 | 28.79211 | 41.83575 | 33048 ft | 540 kts | 109° |
| 2026-05-07 21:05 | 28.77764 | 41.91968 | 33050 ft | 539 kts | 109° |
| 2026-05-07 21:05 | 28.76309 | 42.00364 | 33045 ft | 539 kts | 109° |
| 2026-05-07 21:06 | 28.74851 | 42.08743 | 33045 ft | 538 kts | 109° |
| 2026-05-07 21:06 | 28.73391 | 42.17101 | 33039 ft | 537 kts | 109° |
| 2026-05-07 21:07 | 28.71938 | 42.25397 | 33035 ft | 536 kts | 109° |
| 2026-05-07 21:07 | 28.70471 | 42.33736 | 33033 ft | 536 kts | 109° |
| 2026-05-07 21:08 | 28.69002 | 42.42051 | 33032 ft | 535 kts | 109° |
| 2026-05-07 21:08 | 28.67529 | 42.50360 | 33029 ft | 534 kts | 109° |
| 2026-05-07 21:09 | 28.66054 | 42.58651 | 33025 ft | 534 kts | 109° |
| 2026-05-07 21:09 | 28.64583 | 42.66891 | 33025 ft | 534 kts | 109° |
| 2026-05-07 21:10 | 28.63022 | 42.75143 | 33024 ft | 531 kts | 111° |
| 2026-05-07 21:10 | 28.61319 | 42.83319 | 33020 ft | 530 kts | 111° |
| 2026-05-07 21:11 | 28.59612 | 42.91486 | 33021 ft | 530 kts | 111° |
| 2026-05-07 21:11 | 28.57095 | 43.03691 | 33017 ft | 529 kts | 111° |
| 2026-05-07 21:12 | 28.55418 | 43.11849 | 33011 ft | 529 kts | 111° |
| 2026-05-07 21:12 | 28.53733 | 43.20014 | 33010 ft | 529 kts | 111° |
| 2026-05-07 21:13 | 28.52047 | 43.28156 | 33008 ft | 529 kts | 111° |
| 2026-05-07 21:13 | 28.50370 | 43.36228 | 33014 ft | 529 kts | 111° |
| 2026-05-07 21:14 | 28.48668 | 43.44386 | 33001 ft | 529 kts | 111° |
| 2026-05-07 21:14 | 28.46963 | 43.52534 | 32998 ft | 530 kts | 111° |
| 2026-05-07 21:15 | 28.45252 | 43.60693 | 33002 ft | 530 kts | 111° |
| 2026-05-07 21:15 | 28.43539 | 43.68845 | 33003 ft | 531 kts | 112° |
| 2026-05-07 21:16 | 28.41814 | 43.77002 | 32995 ft | 531 kts | 112° |
| 2026-05-07 21:16 | 28.40082 | 43.85168 | 33001 ft | 532 kts | 112° |
| 2026-05-07 21:17 | 28.38371 | 43.93294 | 32999 ft | 533 kts | 111° |
| 2026-05-07 21:17 | 28.36667 | 44.01508 | 32997 ft | 533 kts | 111° |
| 2026-05-07 21:18 | 28.34970 | 44.09663 | 32998 ft | 534 kts | 111° |
| 2026-05-07 21:18 | 28.33250 | 44.17879 | 32997 ft | 534 kts | 111° |
| 2026-05-07 21:19 | 28.31525 | 44.26084 | 32999 ft | 534 kts | 111° |
| 2026-05-07 21:19 | 28.29794 | 44.34287 | 32994 ft | 534 kts | 111° |
| 2026-05-07 21:20 | 28.28059 | 44.42485 | 32999 ft | 534 kts | 111° |
| 2026-05-07 21:20 | 28.26328 | 44.50638 | 32996 ft | 534 kts | 111° |
| 2026-05-07 21:21 | 28.24582 | 44.58840 | 32997 ft | 534 kts | 111° |
| 2026-05-07 21:21 | 28.22830 | 44.67042 | 32996 ft | 534 kts | 111° |
| 2026-05-07 21:22 | 28.21078 | 44.75218 | 32988 ft | 534 kts | 112° |
| 2026-05-07 21:22 | 28.19321 | 44.83393 | 33001 ft | 534 kts | 111° |
| 2026-05-07 21:23 | 28.17561 | 44.91558 | 32998 ft | 534 kts | 112° |
| 2026-05-07 21:23 | 28.15802 | 44.99689 | 32996 ft | 534 kts | 112° |
| 2026-05-07 21:24 | 28.13576 | 45.07621 | 32997 ft | 518 kts | 124° |
| 2026-05-07 21:24 | 28.10101 | 45.14681 | 32993 ft | 511 kts | 129° |
| 2026-05-07 21:25 | 28.06400 | 45.21569 | 32994 ft | 511 kts | 130° |
| 2026-05-07 21:25 | 28.02696 | 45.28389 | 32994 ft | 512 kts | 130° |
| 2026-05-07 21:26 | 27.98973 | 45.35285 | 32988 ft | 513 kts | 130° |
| 2026-05-07 21:26 | 27.95256 | 45.42192 | 32991 ft | 514 kts | 130° |
| 2026-05-07 21:27 | 27.91552 | 45.49073 | 32992 ft | 515 kts | 130° |
| 2026-05-07 21:27 | 27.88163 | 45.56297 | 32993 ft | 530 kts | 118° |
| 2026-05-07 21:28 | 27.86148 | 45.64421 | 32988 ft | 540 kts | 111° |
| 2026-05-07 21:28 | 27.84462 | 45.72728 | 32991 ft | 542 kts | 110° |
| 2026-05-07 21:29 | 27.82802 | 45.81061 | 32984 ft | 544 kts | 110° |
| 2026-05-07 21:29 | 27.81113 | 45.89346 | 32984 ft | 544 kts | 110° |
| 2026-05-07 21:30 | 27.79388 | 45.97680 | 32977 ft | 545 kts | 110° |
| 2026-05-07 21:30 | 27.77653 | 46.06016 | 32979 ft | 545 kts | 110° |
| 2026-05-07 21:31 | 27.75909 | 46.14367 | 32974 ft | 546 kts | 110° |
| 2026-05-07 21:31 | 27.74163 | 46.22708 | 32973 ft | 546 kts | 110° |
| 2026-05-07 21:32 | 27.72428 | 46.31024 | 32970 ft | 547 kts | 110° |
| 2026-05-07 21:32 | 27.70681 | 46.39383 | 32963 ft | 547 kts | 110° |
| 2026-05-07 21:33 | 27.68928 | 46.47747 | 32962 ft | 548 kts | 110° |
| 2026-05-07 21:33 | 27.67168 | 46.56118 | 32957 ft | 548 kts | 110° |
| 2026-05-07 21:34 | 27.65412 | 46.64440 | 32960 ft | 548 kts | 110° |
| 2026-05-07 21:34 | 27.63641 | 46.72810 | 32957 ft | 549 kts | 110° |
| 2026-05-07 21:35 | 27.61862 | 46.81188 | 32953 ft | 549 kts | 110° |
| 2026-05-07 21:35 | 27.60078 | 46.89563 | 32955 ft | 549 kts | 110° |
| 2026-05-07 21:36 | 27.58288 | 46.97941 | 32955 ft | 549 kts | 110° |
| 2026-05-07 21:36 | 27.56495 | 47.06307 | 32946 ft | 549 kts | 110° |
| 2026-05-07 21:37 | 27.54709 | 47.14620 | 32950 ft | 548 kts | 110° |
| 2026-05-07 21:37 | 27.52910 | 47.22960 | 32945 ft | 547 kts | 110° |
| 2026-05-07 21:38 | 27.51108 | 47.31295 | 32941 ft | 546 kts | 110° |
| 2026-05-07 21:38 | 27.49307 | 47.39599 | 32942 ft | 545 kts | 110° |
| 2026-05-07 21:39 | 27.47503 | 47.47885 | 32937 ft | 544 kts | 110° |
| 2026-05-07 21:39 | 27.46002 | 47.54765 | 32931 ft | 543 kts | 110° |
| 2026-05-07 21:40 | 27.44193 | 47.63026 | 32935 ft | 542 kts | 110° |
| 2026-05-07 21:40 | 27.42045 | 47.71123 | 32933 ft | 538 kts | 115° |
| 2026-05-07 21:41 | 27.39666 | 47.79061 | 32930 ft | 538 kts | 115° |
| 2026-05-07 21:41 | 27.37309 | 47.87057 | 32928 ft | 538 kts | 115° |
| 2026-05-07 21:42 | 27.35004 | 47.95076 | 32925 ft | 539 kts | 114° |
| 2026-05-07 21:42 | 27.32714 | 48.03101 | 32926 ft | 539 kts | 114° |
| 2026-05-07 21:43 | 27.30423 | 48.11147 | 32923 ft | 539 kts | 114° |
| 2026-05-07 21:43 | 27.28267 | 48.19241 | 32919 ft | 541 kts | 112° |
| 2026-05-07 21:44 | 27.26169 | 48.27311 | 32909 ft | 541 kts | 112° |
| 2026-05-07 21:44 | 27.24036 | 48.35417 | 32908 ft | 541 kts | 113° |
| 2026-05-07 21:45 | 27.21882 | 48.43518 | 32904 ft | 541 kts | 113° |
| 2026-05-07 21:45 | 27.19718 | 48.51613 | 32898 ft | 540 kts | 113° |
| 2026-05-07 21:46 | 27.17550 | 48.59700 | 32900 ft | 541 kts | 113° |
| 2026-05-07 21:46 | 27.15379 | 48.67783 | 32891 ft | 541 kts | 113° |
| 2026-05-07 21:47 | 27.13202 | 48.75871 | 32891 ft | 541 kts | 113° |
| 2026-05-07 21:47 | 27.11016 | 48.83916 | 32879 ft | 540 kts | 115° |
| 2026-05-07 21:48 | 27.07770 | 48.91335 | 32886 ft | 522 kts | 131° |
| 2026-05-07 21:48 | 27.03550 | 48.97953 | 32876 ft | 520 kts | 134° |
| 2026-05-07 21:49 | 26.99191 | 49.04424 | 32871 ft | 519 kts | 134° |
| 2026-05-07 21:49 | 26.94852 | 49.10851 | 32870 ft | 520 kts | 134° |
| 2026-05-07 21:50 | 26.90505 | 49.17329 | 32868 ft | 520 kts | 134° |
| 2026-05-07 21:50 | 26.86162 | 49.23816 | 32861 ft | 520 kts | 134° |
| 2026-05-07 21:51 | 26.81823 | 49.30292 | 32857 ft | 520 kts | 134° |
| 2026-05-07 21:51 | 26.77601 | 49.36834 | 32857 ft | 526 kts | 128° |
| 2026-05-07 21:52 | 26.74565 | 49.44399 | 32852 ft | 537 kts | 116° |
| 2026-05-07 21:52 | 26.72150 | 49.52334 | 32847 ft | 540 kts | 114° |
| 2026-05-07 21:53 | 26.69815 | 49.60324 | 32847 ft | 540 kts | 114° |
| 2026-05-07 21:53 | 26.67460 | 49.68288 | 32849 ft | 540 kts | 114° |
| 2026-05-07 21:54 | 26.65077 | 49.76258 | 32851 ft | 539 kts | 114° |
| 2026-05-07 21:54 | 26.62697 | 49.84169 | 32850 ft | 539 kts | 114° |
| 2026-05-07 21:55 | 26.60308 | 49.92106 | 32848 ft | 539 kts | 114° |
| 2026-05-07 21:55 | 26.57893 | 50.00079 | 32865 ft | 545 kts | 114° |
| 2026-05-07 21:56 | 26.56663 | 50.04112 | 33122 ft | 543 kts | 114° |
| 2026-05-07 21:56 | 26.55464 | 50.08064 | 33378 ft | 541 kts | 114° |
| 2026-05-07 21:56 | 26.54248 | 50.12062 | 33539 ft | 541 kts | 114° |
| 2026-05-07 21:56 | 26.53033 | 50.16053 | 33736 ft | 541 kts | 114° |
| 2026-05-07 21:57 | 26.51822 | 50.20032 | 33904 ft | 541 kts | 114° |
| 2026-05-07 21:57 | 26.50608 | 50.24018 | 34062 ft | 541 kts | 114° |
| 2026-05-07 21:57 | 26.49414 | 50.27936 | 34243 ft | 540 kts | 114° |
| 2026-05-07 21:57 | 26.48204 | 50.31903 | 34414 ft | 539 kts | 115° |
| 2026-05-07 21:58 | 26.46992 | 50.35871 | 34577 ft | 538 kts | 115° |
| 2026-05-07 21:58 | 26.45787 | 50.39829 | 34733 ft | 538 kts | 114° |
| 2026-05-07 21:58 | 26.43521 | 50.47814 | 34832 ft | 540 kts | 112° |
| 2026-05-07 21:59 | 26.41324 | 50.55825 | 34829 ft | 540 kts | 112° |
| 2026-05-07 21:59 | 26.39109 | 50.63817 | 34828 ft | 539 kts | 113° |
| 2026-05-07 22:00 | 26.36850 | 50.71799 | 34826 ft | 538 kts | 113° |
| 2026-05-07 22:00 | 26.34585 | 50.79749 | 34827 ft | 538 kts | 113° |
| 2026-05-07 22:01 | 26.32305 | 50.87708 | 34829 ft | 538 kts | 113° |
| 2026-05-07 22:01 | 26.29769 | 50.95454 | 34829 ft | 530 kts | 123° |
| 2026-05-07 22:02 | 26.26330 | 51.02695 | 34825 ft | 527 kts | 125° |
| 2026-05-07 22:02 | 26.22754 | 51.09800 | 34827 ft | 526 kts | 125° |
| 2026-05-07 22:03 | 26.19149 | 51.16894 | 34825 ft | 526 kts | 125° |
| 2026-05-07 22:03 | 26.15551 | 51.24001 | 34823 ft | 526 kts | 125° |
| 2026-05-07 22:04 | 26.11990 | 51.31052 | 34822 ft | 526 kts | 125° |
| 2026-05-07 22:04 | 26.08407 | 51.38146 | 34819 ft | 525 kts | 125° |
| 2026-05-07 22:05 | 26.04823 | 51.45242 | 34819 ft | 525 kts | 125° |
| 2026-05-07 22:05 | 26.01235 | 51.52315 | 34826 ft | 525 kts | 125° |
| 2026-05-07 22:06 | 25.97645 | 51.59377 | 34824 ft | 525 kts | 125° |
| 2026-05-07 22:06 | 25.94052 | 51.66437 | 34813 ft | 524 kts | 125° |
| 2026-05-07 22:07 | 25.90481 | 51.73446 | 34817 ft | 524 kts | 125° |
| 2026-05-07 22:07 | 25.89279 | 51.75832 | 34817 ft | 524 kts | 124° |